Time,TemperatureF,DewpointF,PressureIn,WindDirection,WindDirectionDegrees,WindSpeedMPH,WindSpeedGustMPH,Humidity,HourlyPrecipIn,Conditions,Clouds,dailyrainin,SoftwareType,DateUTC
2013-04-17 00:00:00,42.3,32.0,30.72,WSW,248,8.0,8.0,16,0.00,MI,SKC,0.00,Misterhouse,2013-04-17 07:00:00,
2013-04-17 00:05:00,42.1,32.0,30.72,WSW,257,5.0,6.0,16,0.00,MI,SKC,0.00,Misterhouse,2013-04-17 07:05:00,
2013-04-17 00:10:00,42.1,32.0,30.72,West,270,6.0,6.0,18,0.00,MI,SKC,0.00,Misterhouse,2013-04-17 07:10:00,
2013-04-17 00:15:00,41.9,32.0,30.72,West,280,4.0,5.0,18,0.00,MI,SKC,0.00,Misterhouse,2013-04-17 07:15:00,
2013-04-17 00:20:00,42.1,32.0,30.72,WSW,253,6.0,6.0,18,0.00,MI,SKC,0.00,Misterhouse,2013-04-17 07:20:00,
2013-04-17 00:25:00,42.1,32.0,30.72,WNW,285,9.0,9.0,18,0.00,MI,SKC,0.00,Misterhouse,2013-04-17 07:25:00,
2013-04-17 00:30:00,42.4,32.0,30.72,WSW,246,8.0,9.0,18,0.00,MI,SKC,0.00,Misterhouse,2013-04-17 07:30:00,
2013-04-17 00:35:00,42.8,32.0,30.72,West,278,8.0,8.0,18,0.00,MI,SKC,0.00,Misterhouse,2013-04-17 07:35:00,
2013-04-17 00:40:00,42.6,32.0,30.72,West,278,5.0,6.0,16,0.00,MI,SKC,0.00,Misterhouse,2013-04-17 07:40:00,
2013-04-17 00:45:00,42.4,32.0,30.72,West,272,5.0,5.0,18,0.00,MI,SKC,0.00,Misterhouse,2013-04-17 07:45:00,
2013-04-17 00:50:00,42.3,32.0,30.72,West,280,4.0,4.0,18,0.00,MI,SKC,0.00,Misterhouse,2013-04-17 07:50:00,
2013-04-17 00:55:00,41.7,32.0,30.72,West,278,4.0,4.0,18,0.00,MI,SKC,0.00,Misterhouse,2013-04-17 07:55:00,
2013-04-17 01:00:00,41.5,32.0,30.72,WSW,258,0.0,4.0,18,0.00,MI,SKC,0.00,Misterhouse,2013-04-17 08:00:00,
2013-04-17 01:05:00,41.2,32.0,30.72,WSW,254,0.0,0.0,18,0.00,MI,SKC,0.00,Misterhouse,2013-04-17 08:05:00,
2013-04-17 01:10:00,40.8,32.0,30.72,WSW,254,0.0,0.0,18,0.00,MI,SKC,0.00,Misterhouse,2013-04-17 08:10:00,
2013-04-17 01:15:00,40.6,32.0,30.72,WSW,254,0.0,0.0,18,0.00,MI,SKC,0.00,Misterhouse,2013-04-17 08:15:00,
2013-04-17 01:20:00,40.5,32.0,30.72,WSW,254,0.0,0.0,18,0.00,MI,SKC,0.00,Misterhouse,2013-04-17 08:20:00,
2013-04-17 01:25:00,41.0,32.0,30.72,WSW,251,5.0,6.0,18,0.00,MI,SKC,0.00,Misterhouse,2013-04-17 08:25:00,
2013-04-17 01:30:00,40.8,32.0,30.72,WSW,256,3.0,3.0,18,0.00,MI,SKC,0.00,Misterhouse,2013-04-17 08:30:00,
2013-04-17 01:35:00,40.3,32.0,30.72,WSW,238,4.0,4.0,18,0.00,MI,SKC,0.00,Misterhouse,2013-04-17 08:35:00,
2013-04-17 01:40:00,40.1,32.0,30.72,WSW,255,3.0,3.0,18,0.00,MI,SKC,0.00,Misterhouse,2013-04-17 08:40:00,
2013-04-17 01:45:00,39.9,32.0,30.72,WSW,238,4.0,4.0,18,0.00,MI,SKC,0.00,Misterhouse,2013-04-17 08:45:00,
2013-04-17 01:50:00,40.1,32.0,30.72,SW,226,2.0,4.0,18,0.00,MI,SKC,0.00,Misterhouse,2013-04-17 08:50:00,
2013-04-17 01:55:00,40.1,32.0,30.72,SW,226,0.0,0.0,18,0.00,MI,SKC,0.00,Misterhouse,2013-04-17 08:55:00,
2013-04-17 02:00:00,38.8,32.0,30.72,SW,226,0.0,0.0,19,0.00,MI,SKC,0.00,Misterhouse,2013-04-17 09:00:00,
2013-04-17 02:05:00,38.5,32.0,30.72,SSW,207,4.0,4.0,19,0.00,MI,SKC,0.00,Misterhouse,2013-04-17 09:05:00,
2013-04-17 02:10:00,39.2,32.0,30.72,SW,232,4.0,4.0,18,0.00,MI,SKC,0.00,Misterhouse,2013-04-17 09:10:00,
2013-04-17 02:15:00,39.9,32.0,30.72,WSW,247,7.0,8.0,18,0.00,MI,SKC,0.00,Misterhouse,2013-04-17 09:15:00,
2013-04-17 02:20:00,40.3,32.0,30.72,West,267,8.0,8.0,18,0.00,MI,SKC,0.00,Misterhouse,2013-04-17 09:20:00,
2013-04-17 02:25:00,40.3,32.0,30.72,West,262,6.0,8.0,16,0.00,MI,SKC,0.00,Misterhouse,2013-04-17 09:25:00,
2013-04-17 02:35:00,40.5,32.0,30.72,West,260,8.0,11.0,16,0.00,MI,SKC,0.00,Misterhouse,2013-04-17 09:35:00,
2013-04-17 02:45:00,40.5,32.0,30.72,WSW,256,6.0,6.0,16,0.00,MI,SKC,0.00,Misterhouse,2013-04-17 09:45:00,
2013-04-17 02:55:00,40.5,32.0,30.72,West,266,7.0,9.0,16,0.00,MI,SKC,0.00,Misterhouse,2013-04-17 09:55:00,
2013-04-17 03:05:00,39.9,32.0,30.72,West,263,6.0,8.0,16,0.00,MI,SKC,0.00,Misterhouse,2013-04-17 10:05:00,
2013-04-17 03:10:00,40.3,32.0,30.72,West,268,6.0,6.0,16,0.00,MI,SKC,0.00,Misterhouse,2013-04-17 10:10:00,
2013-04-17 03:15:00,39.9,32.0,30.72,SSW,211,4.0,5.0,16,0.00,MI,SKC,0.00,Misterhouse,2013-04-17 10:15:00,
2013-04-17 03:20:00,39.4,32.0,30.72,SSW,210,7.0,7.0,16,0.00,MI,SKC,0.00,Misterhouse,2013-04-17 10:20:00,
2013-04-17 03:30:00,40.5,32.0,30.72,WSW,237,8.0,8.0,16,0.00,MI,SKC,0.00,Misterhouse,2013-04-17 10:30:00,
2013-04-17 03:35:00,39.6,32.0,30.72,WNW,285,4.0,5.0,16,0.00,MI,SKC,0.00,Misterhouse,2013-04-17 10:35:00,
2013-04-17 03:40:00,40.6,32.0,30.72,SW,231,8.0,9.0,16,0.00,MI,SKC,0.00,Misterhouse,2013-04-17 10:40:00,
2013-04-17 03:45:00,39.6,32.0,30.75,West,280,8.0,14.0,16,0.00,MI,SKC,0.00,Misterhouse,2013-04-17 10:45:00,
2013-04-17 03:50:00,40.6,32.0,30.72,WNW,289,8.0,11.0,16,0.00,MI,SKC,0.00,Misterhouse,2013-04-17 10:50:00,
2013-04-17 03:55:00,39.6,32.0,30.75,West,281,7.0,9.0,16,0.00,MI,SKC,0.00,Misterhouse,2013-04-17 10:55:00,
2013-04-17 04:00:00,40.1,32.0,30.72,WSW,250,6.0,6.0,16,0.00,MI,SKC,0.00,Misterhouse,2013-04-17 11:00:00,
2013-04-17 04:10:00,39.6,32.0,30.75,West,267,8.0,8.0,16,0.00,MI,SKC,0.00,Misterhouse,2013-04-17 11:10:00,
2013-04-17 04:20:00,39.7,32.0,30.75,WSW,245,10.0,13.0,16,0.00,MI,SKC,0.00,Misterhouse,2013-04-17 11:20:00,
2013-04-17 04:25:00,39.2,32.0,30.72,SSW,210,6.0,6.0,16,0.00,MI,SKC,0.00,Misterhouse,2013-04-17 11:25:00,
2013-04-17 04:50:00,38.8,32.0,30.75,West,266,6.0,12.0,16,0.00,MI,SKC,0.00,Misterhouse,2013-04-17 11:50:00,
2013-04-17 04:55:00,38.8,32.0,30.75,WSW,248,9.0,9.0,16,0.00,MI,SKC,0.00,Misterhouse,2013-04-17 11:55:00,
2013-04-17 05:00:00,39.2,32.0,30.75,West,259,7.0,8.0,16,0.00,MI,SKC,0.00,Misterhouse,2013-04-17 12:00:00,
2013-04-17 05:05:00,39.4,32.0,30.75,WSW,238,6.0,6.0,16,0.00,MI,SKC,0.00,Misterhouse,2013-04-17 12:05:00,
2013-04-17 05:15:00,39.9,32.0,30.75,WSW,250,8.0,8.0,16,0.00,MI,SKC,0.00,Misterhouse,2013-04-17 12:15:00,
2013-04-17 05:25:00,38.7,32.0,30.75,West,260,10.0,12.0,16,0.00,MI,SKC,0.00,Misterhouse,2013-04-17 12:25:00,
2013-04-17 05:30:00,39.6,32.0,30.75,WSW,250,9.0,9.0,16,0.00,MI,SKC,0.00,Misterhouse,2013-04-17 12:30:00,
2013-04-17 05:40:00,39.2,32.0,30.75,WSW,257,10.0,10.0,16,0.00,MI,SKC,0.00,Misterhouse,2013-04-17 12:40:00,
2013-04-17 05:45:00,39.2,32.0,30.75,West,276,11.0,13.0,16,0.00,MI,SKC,0.00,Misterhouse,2013-04-17 12:45:00,
2013-04-17 05:50:00,39.0,32.0,30.78,WNW,292,9.0,11.0,16,0.00,MI,SKC,0.00,Misterhouse,2013-04-17 12:50:00,
2013-04-17 05:55:00,39.0,32.0,30.78,WSW,244,9.0,10.0,16,0.00,MI,SKC,0.00,Misterhouse,2013-04-17 12:55:00,
2013-04-17 06:05:00,38.8,32.0,30.75,West,274,9.0,9.0,16,0.00,MI,SKC,0.00,Misterhouse,2013-04-17 13:05:00,
2013-04-17 06:10:00,38.8,32.0,30.75,SW,235,7.0,7.0,16,0.00,MI,SKC,0.00,Misterhouse,2013-04-17 13:10:00,
2013-04-17 06:15:00,38.7,32.0,30.75,West,266,10.0,10.0,16,0.00,MI,SKC,0.00,Misterhouse,2013-04-17 13:15:00,
2013-04-17 06:20:00,38.8,32.0,30.75,West,276,10.0,10.0,16,0.00,MI,SKC,0.00,Misterhouse,2013-04-17 13:20:00,
2013-04-17 06:30:00,38.7,32.0,30.75,West,264,8.0,8.0,16,0.00,MI,SKC,0.00,Misterhouse,2013-04-17 13:30:00,
2013-04-17 06:40:00,38.7,32.0,30.78,WNW,303,9.0,11.0,16,0.00,MI,SKC,0.00,Misterhouse,2013-04-17 13:40:00,
2013-04-17 07:00:00,39.2,32.0,30.78,West,272,11.0,15.0,16,0.00,MI,SKC,0.00,Misterhouse,2013-04-17 14:00:00,
2013-04-17 07:10:00,39.2,32.0,30.78,West,275,10.0,14.0,16,0.00,MI,SKC,0.00,Misterhouse,2013-04-17 14:10:00,
2013-04-17 07:20:00,39.4,32.0,30.78,West,276,11.0,11.0,16,0.00,MI,SKC,0.00,Misterhouse,2013-04-17 14:20:00,
2013-04-17 07:25:00,39.7,32.0,30.78,WNW,283,11.0,13.0,16,0.00,MI,SKC,0.00,Misterhouse,2013-04-17 14:25:00,
2013-04-17 07:30:00,39.7,32.0,30.78,West,264,9.0,9.0,16,0.00,MI,SKC,0.00,Misterhouse,2013-04-17 14:30:00,
2013-04-17 07:40:00,39.9,32.0,30.81,West,274,8.0,8.0,16,0.00,MI,SKC,0.00,Misterhouse,2013-04-17 14:40:00,
2013-04-17 07:45:00,40.5,32.0,30.81,WSW,258,9.0,11.0,16,0.00,MI,SKC,0.00,Misterhouse,2013-04-17 14:45:00,
2013-04-17 07:55:00,41.0,32.0,30.81,WNW,293,9.0,10.0,16,0.00,MI,SKC,0.00,Misterhouse,2013-04-17 14:55:00,
2013-04-17 08:00:00,41.4,32.0,30.81,WNW,295,9.0,9.0,16,0.00,MI,SKC,0.00,Misterhouse,2013-04-17 15:00:00,
2013-04-17 08:05:00,41.7,32.0,30.81,WNW,287,9.0,9.0,16,0.00,MI,SKC,0.00,Misterhouse,2013-04-17 15:05:00,
2013-04-17 08:10:00,42.3,32.0,30.81,West,278,8.0,8.0,16,0.00,MI,SKC,0.00,Misterhouse,2013-04-17 15:10:00,
2013-04-17 08:15:00,42.8,32.0,30.81,WNW,282,6.0,6.0,15,0.00,MI,SKC,0.00,Misterhouse,2013-04-17 15:15:00,
2013-04-17 08:20:00,43.0,32.0,30.81,WSW,256,8.0,8.0,15,0.00,MI,SKC,0.00,Misterhouse,2013-04-17 15:20:00,
2013-04-17 08:25:00,43.5,32.0,30.81,West,262,8.0,9.0,15,0.00,MI,SKC,0.00,Misterhouse,2013-04-17 15:25:00,
2013-04-17 08:30:00,43.7,32.0,30.81,WNW,284,7.0,7.0,15,0.00,MI,SKC,0.00,Misterhouse,2013-04-17 15:30:00,
2013-04-17 08:35:00,44.2,32.0,30.81,WNW,294,5.0,5.0,15,0.00,MI,SKC,0.00,Misterhouse,2013-04-17 15:35:00,
2013-04-17 08:40:00,45.0,32.0,30.81,WNW,290,5.0,5.0,15,0.00,MI,SKC,0.00,Misterhouse,2013-04-17 15:40:00,
2013-04-17 08:45:00,45.5,32.0,30.81,WNW,284,6.0,11.0,15,0.00,MI,SKC,0.00,Misterhouse,2013-04-17 15:45:00,
2013-04-17 08:50:00,45.7,32.0,30.81,West,279,0.0,4.0,15,0.00,MI,SKC,0.00,Misterhouse,2013-04-17 15:50:00,
2013-04-17 08:55:00,46.0,32.0,30.81,West,273,8.0,8.0,15,0.00,MI,SKC,0.00,Misterhouse,2013-04-17 15:55:00,
2013-04-17 09:00:00,46.2,32.0,30.81,NW,310,2.0,4.0,15,0.00,MI,SKC,0.00,Misterhouse,2013-04-17 16:00:00,
2013-04-17 09:10:00,47.1,32.0,30.81,NW,313,3.0,6.0,14,0.00,MI,SKC,0.00,Misterhouse,2013-04-17 16:10:00,
2013-04-17 09:15:00,47.5,32.0,30.81,NNW,329,9.0,9.0,14,0.00,MI,SKC,0.00,Misterhouse,2013-04-17 16:15:00,
2013-04-17 09:20:00,47.7,32.0,30.81,North,3,5.0,6.0,14,0.00,MI,SKC,0.00,Misterhouse,2013-04-17 16:20:00,
2013-04-17 09:25:00,47.8,32.0,30.81,North,353,7.0,8.0,14,0.00,MI,SKC,0.00,Misterhouse,2013-04-17 16:25:00,
2013-04-17 09:30:00,47.8,32.0,30.81,NNW,328,6.0,6.0,14,0.00,MI,SKC,0.00,Misterhouse,2013-04-17 16:30:00,
2013-04-17 09:35:00,48.4,32.0,30.81,NNW,340,7.0,8.0,14,0.00,MI,SKC,0.00,Misterhouse,2013-04-17 16:35:00,
2013-04-17 09:40:00,48.9,32.0,30.81,NW,306,8.0,8.0,14,0.00,MI,SKC,0.00,Misterhouse,2013-04-17 16:40:00,
2013-04-17 09:45:00,49.1,32.0,30.81,NNW,329,4.0,6.0,14,0.00,MI,SKC,0.00,Misterhouse,2013-04-17 16:45:00,
2013-04-17 09:50:00,49.6,32.0,30.81,WNW,294,7.0,7.0,14,0.00,MI,SKC,0.00,Misterhouse,2013-04-17 16:50:00,
2013-04-17 09:55:00,49.8,32.0,30.81,NNW,343,4.0,0.0,14,0.00,MI,SKC,0.00,Misterhouse,2013-04-17 16:55:00,
2013-04-17 10:00:00,50.0,32.0,30.81,WNW,286,4.0,4.0,14,0.00,MI,SKC,0.00,Misterhouse,2013-04-17 17:00:00,
2013-04-17 10:10:00,51.4,32.0,30.81,NW,306,5.0,6.0,14,0.00,MI,SKC,0.00,Misterhouse,2013-04-17 17:10:00,
2013-04-17 10:15:00,51.8,32.0,30.81,North,0,7.0,9.0,13,0.00,MI,SKC,0.00,Misterhouse,2013-04-17 17:15:00,
2013-04-17 10:20:00,51.4,32.0,30.81,WNW,284,8.0,8.0,14,0.00,MI,SKC,0.00,Misterhouse,2013-04-17 17:20:00,
2013-04-17 10:25:00,51.3,32.0,30.84,North,353,10.0,11.0,14,0.00,MI,SKC,0.00,Misterhouse,2013-04-17 17:25:00,
2013-04-17 10:30:00,50.9,32.0,30.84,WNW,299,4.0,5.0,14,0.00,MI,SKC,0.00,Misterhouse,2013-04-17 17:30:00,
2013-04-17 10:35:00,51.6,32.0,30.84,WNW,301,6.0,8.0,14,0.00,MI,SKC,0.00,Misterhouse,2013-04-17 17:35:00,
2013-04-17 10:40:00,52.0,32.0,30.84,NW,304,7.0,7.0,13,0.00,MI,SKC,0.00,Misterhouse,2013-04-17 17:40:00,
2013-04-17 10:45:00,51.6,32.0,30.84,NW,307,8.0,8.0,14,0.00,MI,SKC,0.00,Misterhouse,2013-04-17 17:45:00,
2013-04-17 10:50:00,51.1,32.0,30.84,NW,318,3.0,3.0,14,0.00,MI,SKC,0.00,Misterhouse,2013-04-17 17:50:00,
2013-04-17 10:55:00,51.6,32.0,30.84,NNW,327,5.0,5.0,14,0.00,MI,SKC,0.00,Misterhouse,2013-04-17 17:55:00,
2013-04-17 11:00:00,52.3,32.0,30.84,NW,323,7.0,8.0,13,0.00,MI,SKC,0.00,Misterhouse,2013-04-17 18:00:00,
2013-04-17 11:05:00,52.0,32.0,30.84,NW,307,6.0,8.0,13,0.00,MI,SKC,0.00,Misterhouse,2013-04-17 18:05:00,
2013-04-17 11:10:00,51.4,32.0,30.84,WNW,303,7.0,7.0,14,0.00,MI,SKC,0.00,Misterhouse,2013-04-17 18:10:00,
2013-04-17 11:15:00,52.0,32.0,30.84,NW,312,7.0,10.0,13,0.00,MI,SKC,0.00,Misterhouse,2013-04-17 18:15:00,
2013-04-17 11:20:00,53.1,32.0,30.84,SSW,208,4.0,6.0,13,0.00,MI,SKC,0.00,Misterhouse,2013-04-17 18:20:00,
2013-04-17 11:25:00,54.7,32.0,30.81,WNW,303,7.0,8.0,13,0.00,MI,SKC,0.00,Misterhouse,2013-04-17 18:25:00,
2013-04-17 11:30:00,55.0,32.0,30.81,WSW,241,3.0,3.0,13,0.00,MI,SKC,0.00,Misterhouse,2013-04-17 18:30:00,
2013-04-17 11:35:00,55.2,32.0,30.81,SW,221,4.0,4.0,13,0.00,MI,SKC,0.00,Misterhouse,2013-04-17 18:35:00,
2013-04-17 11:40:00,55.4,32.0,30.84,WNW,300,5.0,10.0,12,0.00,MI,SKC,0.00,Misterhouse,2013-04-17 18:40:00,
2013-04-17 11:45:00,55.6,32.0,30.84,NW,308,6.0,8.0,12,0.00,MI,SKC,0.00,Misterhouse,2013-04-17 18:45:00,
2013-04-17 11:50:00,55.0,32.0,30.84,WNW,294,6.0,8.0,13,0.00,MI,SKC,0.00,Misterhouse,2013-04-17 18:50:00,
2013-04-17 11:55:00,55.9,32.0,30.81,East,83,4.0,6.0,12,0.00,MI,SKC,0.00,Misterhouse,2013-04-17 18:55:00,
2013-04-17 12:00:00,55.9,32.0,30.81,North,353,6.0,8.0,12,0.00,MI,SKC,0.00,Misterhouse,2013-04-17 19:00:00,
2013-04-17 12:10:00,56.1,32.0,30.81,WNW,297,7.0,8.0,12,0.00,MI,SKC,0.00,Misterhouse,2013-04-17 19:10:00,
2013-04-17 12:15:00,54.1,32.0,30.81,NW,306,8.0,8.0,13,0.00,MI,SKC,0.00,Misterhouse,2013-04-17 19:15:00,
2013-04-17 12:20:00,56.3,32.0,30.81,NW,306,7.0,7.0,12,0.00,MI,SKC,0.00,Misterhouse,2013-04-17 19:20:00,
2013-04-17 12:25:00,56.8,32.0,30.81,NW,309,3.0,0.0,12,0.00,MI,SKC,0.00,Misterhouse,2013-04-17 19:25:00,
2013-04-17 12:30:00,56.3,32.0,30.81,North,1,5.0,9.0,12,0.00,MI,SKC,0.00,Misterhouse,2013-04-17 19:30:00,
2013-04-17 12:35:00,56.7,32.0,30.81,NW,319,5.0,6.0,12,0.00,MI,SKC,0.00,Misterhouse,2013-04-17 19:35:00,
2013-04-17 12:40:00,56.7,32.0,30.81,NW,311,8.0,8.0,12,0.00,MI,SKC,0.00,Misterhouse,2013-04-17 19:40:00,
2013-04-17 12:45:00,56.7,32.0,30.81,NNW,333,10.0,13.0,12,0.00,MI,SKC,0.00,Misterhouse,2013-04-17 19:45:00,
2013-04-17 12:50:00,55.4,32.0,30.81,WNW,290,9.0,9.0,12,0.00,MI,SKC,0.00,Misterhouse,2013-04-17 19:50:00,
2013-04-17 12:55:00,56.3,32.0,30.81,NNW,342,6.0,6.0,12,0.00,MI,SKC,0.00,Misterhouse,2013-04-17 19:55:00,
2013-04-17 13:00:00,56.5,32.0,30.81,WNW,287,8.0,8.0,12,0.00,MI,SKC,0.00,Misterhouse,2013-04-17 20:00:00,
2013-04-17 13:05:00,56.8,32.0,30.81,NW,325,7.0,7.0,12,0.00,MI,SKC,0.00,Misterhouse,2013-04-17 20:05:00,
2013-04-17 13:10:00,57.0,32.0,30.81,West,271,6.0,6.0,12,0.00,MI,SKC,0.00,Misterhouse,2013-04-17 20:10:00,
2013-04-17 13:15:00,57.4,32.0,30.81,North,353,7.0,7.0,12,0.00,MI,SKC,0.00,Misterhouse,2013-04-17 20:15:00,
2013-04-17 13:20:00,57.6,32.0,30.81,WNW,294,6.0,6.0,12,0.00,MI,SKC,0.00,Misterhouse,2013-04-17 20:20:00,
2013-04-17 13:25:00,58.3,32.0,30.81,NW,311,5.0,5.0,12,0.00,MI,SKC,0.00,Misterhouse,2013-04-17 20:25:00,
2013-04-17 13:30:00,58.6,32.0,30.81,NNW,348,5.0,5.0,12,0.00,MI,SKC,0.00,Misterhouse,2013-04-17 20:30:00,
2013-04-17 13:35:00,57.9,32.0,30.81,NW,311,6.0,8.0,12,0.00,MI,SKC,0.00,Misterhouse,2013-04-17 20:35:00,
2013-04-17 13:40:00,56.8,32.0,30.81,WSW,253,12.0,12.0,12,0.00,MI,SKC,0.00,Misterhouse,2013-04-17 20:40:00,
2013-04-17 13:45:00,56.8,32.0,30.81,NW,304,3.0,3.0,12,0.00,MI,SKC,0.00,Misterhouse,2013-04-17 20:45:00,
2013-04-17 13:50:00,58.5,32.0,30.81,NNW,335,8.0,8.0,12,0.00,MI,SKC,0.00,Misterhouse,2013-04-17 20:50:00,
2013-04-17 13:55:00,58.8,32.0,30.81,WNW,282,6.0,6.0,12,0.00,MI,SKC,0.00,Misterhouse,2013-04-17 20:55:00,
2013-04-17 14:00:00,58.5,32.0,30.81,West,278,8.0,9.0,12,0.00,MI,SKC,0.00,Misterhouse,2013-04-17 21:00:00,
2013-04-17 14:10:00,57.7,32.0,30.81,WNW,289,7.0,8.0,12,0.00,MI,SKC,0.00,Misterhouse,2013-04-17 21:10:00,
2013-04-17 14:15:00,59.5,32.0,30.81,NW,308,5.0,5.0,12,0.00,MI,SKC,0.00,Misterhouse,2013-04-17 21:15:00,
2013-04-17 14:20:00,59.9,32.0,30.81,NW,315,4.0,0.0,12,0.00,MI,SKC,0.00,Misterhouse,2013-04-17 21:20:00,
2013-04-17 14:25:00,60.4,32.0,30.81,NE,53,5.0,8.0,12,0.00,MI,SKC,0.00,Misterhouse,2013-04-17 21:25:00,
2013-04-17 14:30:00,60.6,32.0,30.81,NW,308,5.0,8.0,12,0.00,MI,SKC,0.00,Misterhouse,2013-04-17 21:30:00,
2013-04-17 14:35:00,59.9,32.0,30.81,West,279,8.0,15.0,12,0.00,MI,SKC,0.00,Misterhouse,2013-04-17 21:35:00,
2013-04-17 14:40:00,59.7,32.0,30.81,North,357,11.0,11.0,12,0.00,MI,SKC,0.00,Misterhouse,2013-04-17 21:40:00,
2013-04-17 14:45:00,59.7,32.0,30.81,NW,326,5.0,5.0,12,0.00,MI,SKC,0.00,Misterhouse,2013-04-17 21:45:00,
2013-04-17 14:50:00,59.9,32.0,30.81,NW,317,6.0,8.0,12,0.00,MI,SKC,0.00,Misterhouse,2013-04-17 21:50:00,
2013-04-17 14:55:00,59.0,32.0,30.81,WNW,290,6.0,6.0,12,0.00,MI,SKC,0.00,Misterhouse,2013-04-17 21:55:00,
2013-04-17 15:00:00,58.5,32.0,30.81,West,260,9.0,9.0,12,0.00,MI,SKC,0.00,Misterhouse,2013-04-17 22:00:00,
2013-04-17 15:10:00,58.5,32.0,30.81,WNW,298,6.0,13.0,12,0.00,MI,SKC,0.00,Misterhouse,2013-04-17 22:10:00,
2013-04-17 15:15:00,58.6,32.0,30.81,ESE,116,3.0,6.0,12,0.00,MI,SKC,0.00,Misterhouse,2013-04-17 22:15:00,
2013-04-17 15:20:00,59.5,32.0,30.81,NW,315,7.0,8.0,12,0.00,MI,SKC,0.00,Misterhouse,2013-04-17 22:20:00,
2013-04-17 15:25:00,59.7,32.0,30.78,NNW,342,5.0,5.0,12,0.00,PR,BKN,0.00,Misterhouse,2013-04-17 22:25:00,
2013-04-17 15:30:00,59.2,32.0,30.78,West,269,7.0,8.0,12,0.00,PR,BKN,0.00,Misterhouse,2013-04-17 22:30:00,
2013-04-17 15:35:00,58.8,32.0,30.78,NW,311,10.0,11.0,12,0.00,PR,BKN,0.00,Misterhouse,2013-04-17 22:35:00,
2013-04-17 15:40:00,58.5,32.0,30.81,West,264,11.0,13.0,12,0.00,PR,BKN,0.00,Misterhouse,2013-04-17 22:40:00,
2013-04-17 15:45:00,58.6,32.0,30.81,West,270,8.0,8.0,12,0.00,PR,BKN,0.00,Misterhouse,2013-04-17 22:45:00,
2013-04-17 15:50:00,59.5,32.0,30.81,NW,306,11.0,11.0,12,0.00,PR,BKN,0.00,Misterhouse,2013-04-17 22:50:00,
2013-04-17 15:55:00,59.2,32.0,30.78,NNW,337,4.0,4.0,12,0.00,PR,BKN,0.00,Misterhouse,2013-04-17 22:55:00,
2013-04-17 16:00:00,60.1,32.0,30.78,West,277,5.0,5.0,12,0.00,PR,BKN,0.00,Misterhouse,2013-04-17 23:00:00,
2013-04-17 16:10:00,58.8,32.0,30.78,WNW,283,8.0,8.0,12,0.00,PR,BKN,0.00,Misterhouse,2013-04-17 23:10:00,
2013-04-17 16:15:00,58.6,32.0,30.78,West,273,7.0,7.0,12,0.00,PR,BKN,0.00,Misterhouse,2013-04-17 23:15:00,
2013-04-17 16:20:00,57.2,32.0,30.78,SW,224,8.0,11.0,12,0.00,PR,BKN,0.00,Misterhouse,2013-04-17 23:20:00,
2013-04-17 16:25:00,59.2,32.0,30.78,West,275,8.0,8.0,12,0.00,PR,BKN,0.00,Misterhouse,2013-04-17 23:25:00,
2013-04-17 16:30:00,58.3,32.0,30.78,West,274,13.0,13.0,12,0.00,PR,BKN,0.00,Misterhouse,2013-04-17 23:30:00,
2013-04-17 16:35:00,57.2,32.0,30.78,WSW,250,7.0,8.0,12,0.00,PR,BKN,0.00,Misterhouse,2013-04-17 23:35:00,
2013-04-17 16:40:00,57.6,32.0,30.78,WNW,289,8.0,8.0,12,0.00,PR,BKN,0.00,Misterhouse,2013-04-17 23:40:00,
2013-04-17 16:45:00,58.1,32.0,30.78,West,268,7.0,9.0,12,0.00,PR,BKN,0.00,Misterhouse,2013-04-17 23:45:00,
2013-04-17 16:50:00,57.6,32.0,30.78,West,259,11.0,11.0,12,0.00,PR,BKN,0.00,Misterhouse,2013-04-17 23:50:00,
2013-04-17 16:55:00,58.3,32.0,30.78,WNW,292,8.0,8.0,12,0.00,PR,BKN,0.00,Misterhouse,2013-04-17 23:55:00,
2013-04-17 17:00:00,58.1,32.0,30.78,West,264,7.0,7.0,12,0.00,PR,BKN,0.00,Misterhouse,2013-04-18 00:00:00,
2013-04-17 17:10:00,56.7,32.0,30.78,West,274,9.0,9.0,12,0.00,PR,BKN,0.00,Misterhouse,2013-04-18 00:10:00,
2013-04-17 17:15:00,57.9,32.0,30.78,WSW,258,10.0,13.0,12,0.00,PR,BKN,0.00,Misterhouse,2013-04-18 00:15:00,
2013-04-17 17:20:00,56.5,32.0,30.78,SW,226,9.0,9.0,12,0.00,PR,BKN,0.00,Misterhouse,2013-04-18 00:20:00,
2013-04-17 17:30:00,57.0,32.0,30.78,West,277,9.0,10.0,12,0.00,PR,BKN,0.00,Misterhouse,2013-04-18 00:30:00,
2013-04-17 17:35:00,57.0,32.0,30.78,West,261,7.0,8.0,12,0.00,PR,BKN,0.00,Misterhouse,2013-04-18 00:35:00,
2013-04-17 17:40:00,56.8,32.0,30.81,West,279,12.0,12.0,12,0.00,PR,BKN,0.00,Misterhouse,2013-04-18 00:40:00,
2013-04-17 17:45:00,56.5,32.0,30.81,WSW,243,8.0,10.0,12,0.00,PR,BKN,0.00,Misterhouse,2013-04-18 00:45:00,
2013-04-17 17:50:00,56.3,32.0,30.81,WNW,285,9.0,11.0,12,0.00,PR,BKN,0.00,Misterhouse,2013-04-18 00:50:00,
2013-04-17 17:55:00,56.1,32.0,30.81,West,271,9.0,11.0,12,0.00,PR,BKN,0.00,Misterhouse,2013-04-18 00:55:00,
2013-04-17 18:00:00,55.8,32.0,30.81,WNW,290,11.0,15.0,12,0.00,PR,BKN,0.00,Misterhouse,2013-04-18 01:00:00,
2013-04-17 18:10:00,55.6,32.0,30.81,West,268,11.0,11.0,12,0.00,PR,BKN,0.00,Misterhouse,2013-04-18 01:10:00,
2013-04-17 18:15:00,55.4,32.0,30.81,WSW,258,6.0,6.0,12,0.00,PR,BKN,0.00,Misterhouse,2013-04-18 01:15:00,
2013-04-17 18:20:00,55.6,32.0,30.81,West,263,10.0,10.0,12,0.00,PR,BKN,0.00,Misterhouse,2013-04-18 01:20:00,
2013-04-17 18:25:00,55.2,32.0,30.81,West,269,6.0,9.0,13,0.00,PR,BKN,0.00,Misterhouse,2013-04-18 01:25:00,
2013-04-17 18:30:00,54.9,32.0,30.81,WSW,245,7.0,7.0,13,0.00,PR,BKN,0.00,Misterhouse,2013-04-18 01:30:00,
2013-04-17 18:35:00,54.1,32.0,30.81,West,272,10.0,13.0,13,0.00,PR,BKN,0.00,Misterhouse,2013-04-18 01:35:00,
2013-04-17 18:40:00,54.1,32.0,30.81,WSW,255,8.0,10.0,13,0.00,PR,BKN,0.00,Misterhouse,2013-04-18 01:40:00,
2013-04-17 18:45:00,54.0,32.0,30.81,West,280,9.0,10.0,13,0.00,PR,BKN,0.00,Misterhouse,2013-04-18 01:45:00,
2013-04-17 18:50:00,53.6,32.0,30.81,West,266,9.0,9.0,13,0.00,PR,BKN,0.00,Misterhouse,2013-04-18 01:50:00,
2013-04-17 18:55:00,53.1,32.0,30.81,WSW,237,8.0,8.0,13,0.00,PR,BKN,0.00,Misterhouse,2013-04-18 01:55:00,
2013-04-17 19:00:00,52.7,32.0,30.81,SSW,208,8.0,8.0,13,0.00,PR,BKN,0.00,Misterhouse,2013-04-18 02:00:00,
2013-04-17 19:10:00,51.8,32.0,30.81,SW,222,8.0,8.0,13,0.00,PR,BKN,0.00,Misterhouse,2013-04-18 02:10:00,
2013-04-17 19:15:00,51.4,32.0,30.81,WSW,256,7.0,10.0,14,0.00,PR,BKN,0.00,Misterhouse,2013-04-18 02:15:00,
2013-04-17 19:20:00,51.1,32.0,30.81,SW,233,7.0,9.0,14,0.00,PR,BKN,0.00,Misterhouse,2013-04-18 02:20:00,
2013-04-17 19:25:00,50.9,32.0,30.81,West,263,10.0,10.0,14,0.00,PR,BKN,0.00,Misterhouse,2013-04-18 02:25:00,
2013-04-17 19:30:00,50.5,32.0,30.81,SW,233,8.0,10.0,14,0.00,PR,BKN,0.00,Misterhouse,2013-04-18 02:30:00,
2013-04-17 19:35:00,50.4,32.0,30.81,West,262,10.0,11.0,14,0.00,PR,BKN,0.00,Misterhouse,2013-04-18 02:35:00,
2013-04-17 19:40:00,50.0,32.0,30.81,WNW,288,8.0,8.0,14,0.00,PR,BKN,0.00,Misterhouse,2013-04-18 02:40:00,
2013-04-17 19:45:00,49.6,32.0,30.81,West,270,7.0,7.0,14,0.00,PR,BKN,0.00,Misterhouse,2013-04-18 02:45:00,
2013-04-17 19:50:00,49.5,32.0,30.81,West,262,9.0,9.0,14,0.00,PR,BKN,0.00,Misterhouse,2013-04-18 02:50:00,
2013-04-17 19:55:00,49.1,32.0,30.81,WSW,242,8.0,8.0,14,0.00,PR,BKN,0.00,Misterhouse,2013-04-18 02:55:00,
2013-04-17 20:00:00,49.1,32.0,30.81,WSW,254,9.0,9.0,14,0.00,PR,BKN,0.00,Misterhouse,2013-04-18 03:00:00,
2013-04-17 20:05:00,48.9,32.0,30.81,WSW,238,11.0,11.0,14,0.00,PR,BKN,0.00,Misterhouse,2013-04-18 03:05:00,
2013-04-17 20:10:00,48.9,32.0,30.81,WSW,256,9.0,10.0,14,0.00,PR,BKN,0.00,Misterhouse,2013-04-18 03:10:00,
2013-04-17 20:15:00,48.7,32.0,30.81,WSW,255,8.0,8.0,14,0.00,PR,BKN,0.00,Misterhouse,2013-04-18 03:15:00,
2013-04-17 20:20:00,48.4,32.0,30.81,WSW,247,6.0,8.0,14,0.00,PR,BKN,0.00,Misterhouse,2013-04-18 03:20:00,
2013-04-17 20:25:00,48.0,32.0,30.81,West,265,7.0,7.0,14,0.00,PR,BKN,0.00,Misterhouse,2013-04-18 03:25:00,
2013-04-17 20:30:00,47.8,32.0,30.81,WSW,244,7.0,7.0,14,0.00,PR,BKN,0.00,Misterhouse,2013-04-18 03:30:00,
2013-04-17 20:35:00,47.7,32.0,30.81,WSW,248,5.0,5.0,14,0.00,PR,BKN,0.00,Misterhouse,2013-04-18 03:35:00,
2013-04-17 20:40:00,47.7,32.0,30.84,WSW,258,8.0,8.0,14,0.00,MI,SKC,0.00,Misterhouse,2013-04-18 03:40:00,
2013-04-17 20:45:00,47.8,32.0,30.84,SW,236,6.0,8.0,14,0.00,MI,SKC,0.00,Misterhouse,2013-04-18 03:45:00,
2013-04-17 20:50:00,48.0,32.0,30.84,WSW,250,7.0,7.0,14,0.00,MI,SKC,0.00,Misterhouse,2013-04-18 03:50:00,
2013-04-17 20:55:00,47.8,32.0,30.84,WSW,253,4.0,5.0,14,0.00,MI,SKC,0.00,Misterhouse,2013-04-18 03:55:00,
2013-04-17 21:00:00,47.8,32.0,30.84,WSW,248,6.0,6.0,14,0.00,MI,SKC,0.00,Misterhouse,2013-04-18 04:00:00,
2013-04-17 21:05:00,46.4,32.0,30.87,WSW,254,0.0,0.0,14,0.00,MI,SKC,0.00,Misterhouse,2013-04-18 04:05:00,
2013-04-17 21:10:00,46.6,32.0,30.87,WSW,246,5.0,5.0,14,0.00,MI,SKC,0.00,Misterhouse,2013-04-18 04:10:00,
2013-04-17 21:15:00,46.2,32.0,30.87,WSW,246,0.0,0.0,15,0.00,MI,SKC,0.00,Misterhouse,2013-04-18 04:15:00,
2013-04-17 21:20:00,46.0,32.0,30.87,WSW,249,4.0,5.0,15,0.00,MI,SKC,0.00,Misterhouse,2013-04-18 04:20:00,
2013-04-17 21:25:00,45.9,32.0,30.87,WSW,249,0.0,0.0,15,0.00,MI,SKC,0.00,Misterhouse,2013-04-18 04:25:00,
2013-04-17 21:30:00,45.9,32.0,30.87,West,266,4.0,4.0,15,0.00,MI,SKC,0.00,Misterhouse,2013-04-18 04:30:00,
2013-04-17 21:35:00,45.9,32.0,30.87,WSW,249,0.0,0.0,15,0.00,MI,SKC,0.00,Misterhouse,2013-04-18 04:35:00,
2013-04-17 21:40:00,45.9,32.0,30.87,WSW,249,3.0,3.0,15,0.00,MI,SKC,0.00,Misterhouse,2013-04-18 04:40:00,
2013-04-17 21:45:00,45.9,32.0,30.87,WSW,249,0.0,0.0,15,0.00,MI,SKC,0.00,Misterhouse,2013-04-18 04:45:00,
2013-04-17 21:50:00,45.9,32.0,30.87,WSW,249,0.0,0.0,15,0.00,MI,SKC,0.00,Misterhouse,2013-04-18 04:50:00,
2013-04-17 21:55:00,45.9,32.0,30.87,WSW,249,0.0,0.0,15,0.00,MI,SKC,0.00,Misterhouse,2013-04-18 04:55:00,
2013-04-17 22:00:00,46.0,32.0,30.87,WSW,249,0.0,0.0,15,0.00,MI,SKC,0.00,Misterhouse,2013-04-18 05:00:00,
2013-04-17 22:05:00,46.0,32.0,30.87,WSW,249,0.0,0.0,15,0.00,MI,SKC,0.00,Misterhouse,2013-04-18 05:05:00,
2013-04-17 22:10:00,46.0,32.0,30.87,WNW,299,4.0,4.0,15,0.00,MI,SKC,0.00,Misterhouse,2013-04-18 05:10:00,
2013-04-17 22:15:00,45.5,32.0,30.87,WNW,294,0.0,0.0,15,0.00,MI,SKC,0.00,Misterhouse,2013-04-18 05:15:00,
2013-04-17 22:20:00,44.8,32.0,30.87,WNW,294,0.0,0.0,15,0.00,MI,SKC,0.00,Misterhouse,2013-04-18 05:20:00,
2013-04-17 22:25:00,44.4,32.0,30.87,WNW,294,0.0,0.0,15,0.00,MI,SKC,0.00,Misterhouse,2013-04-18 05:25:00,
2013-04-17 22:30:00,44.2,32.0,30.87,WNW,294,0.0,0.0,15,0.00,MI,SKC,0.00,Misterhouse,2013-04-18 05:30:00,
2013-04-17 22:35:00,44.6,32.0,30.87,WNW,294,0.0,0.0,15,0.00,MI,SKC,0.00,Misterhouse,2013-04-18 05:35:00,
2013-04-17 22:40:00,44.6,32.0,30.87,WNW,294,0.0,0.0,15,0.00,MI,SKC,0.00,Misterhouse,2013-04-18 05:40:00,
2013-04-17 22:45:00,44.8,32.0,30.87,WNW,293,0.0,0.0,15,0.00,MI,SKC,0.00,Misterhouse,2013-04-18 05:45:00,
2013-04-17 22:50:00,45.1,32.0,30.87,WNW,293,0.0,0.0,15,0.00,MI,SKC,0.00,Misterhouse,2013-04-18 05:50:00,
2013-04-17 22:55:00,45.5,32.0,30.87,WNW,293,0.0,0.0,15,0.00,MI,SKC,0.00,Misterhouse,2013-04-18 05:55:00,
2013-04-17 23:00:00,44.6,32.0,30.87,WNW,293,0.0,0.0,15,0.00,MI,SKC,0.00,Misterhouse,2013-04-18 06:00:00,
2013-04-17 23:05:00,43.9,32.0,30.87,WNW,293,0.0,0.0,15,0.00,MI,SKC,0.00,Misterhouse,2013-04-18 06:05:00,
2013-04-17 23:10:00,44.2,32.0,30.90,WNW,293,0.0,0.0,15,0.00,MI,SKC,0.00,Misterhouse,2013-04-18 06:10:00,
2013-04-17 23:15:00,44.4,32.0,30.90,North,349,0.0,0.0,15,0.00,MI,SKC,0.00,Misterhouse,2013-04-18 06:15:00,
2013-04-17 23:20:00,44.8,32.0,30.90,North,353,0.0,0.0,15,0.00,MI,SKC,0.00,Misterhouse,2013-04-18 06:20:00,
2013-04-17 23:30:00,44.6,32.0,30.90,North,353,0.0,0.0,15,0.00,MI,SKC,0.00,Misterhouse,2013-04-18 06:30:00,
2013-04-17 23:35:00,44.1,32.0,30.90,North,353,0.0,0.0,15,0.00,MI,SKC,0.00,Misterhouse,2013-04-18 06:35:00,
2013-04-17 23:40:00,43.9,32.0,30.90,North,353,0.0,0.0,15,0.00,MI,SKC,0.00,Misterhouse,2013-04-18 06:40:00,
2013-04-17 23:45:00,43.9,32.0,30.90,North,353,0.0,0.0,15,0.00,MI,SKC,0.00,Misterhouse,2013-04-18 06:45:00,
2013-04-17 23:50:00,44.1,32.0,30.90,North,353,0.0,0.0,15,0.00,MI,SKC,0.00,Misterhouse,2013-04-18 06:50:00,
2013-04-17 23:55:00,44.2,32.0,30.90,North,353,0.0,0.0,15,0.00,MI,SKC,0.00,Misterhouse,2013-04-18 06:55:00,